Terminal Aerodrome Forecast
Issued by NWS Spokane, WA

Home | Current Version | Previous Version | Text Only | Print | Product List | Glossary On
Versions: 1 2 3 4 5 6 7 8 9 10 11 12 13 14 15 16 17 18 19 20 21 22
000
FTUS46 KOTX 151613 AAB
TAFLWS
TAF AMD
KLWS 151613Z 1516/1612 30005KT 6SM BR SCT015 OVC200
      TEMPO 1516/1517 1SM BR VV002
     FM152030 30004KT P6SM SCT050 OVC080
     FM152300 29004KT 1SM -SN OVC005
     FM160400 24004KT 3SM -SHSN BR BKN008 OVC015=

USA.gov is the U.S. government's official web portal to all federal, state and local government web resources and services.